KCWA/CWA METAR and TAF weather

Enter ICAO airport designator
Station Type Date Time Source
KCWA METAR 2020/04/04 04:15 UTC NOAA

KCWA 040415Z AUTO 31007KT 7SM -SN BKN007 BKN043 OVC050 00/00 A3006 RMK AO2 P0001


Station Type Date Time Source
KCWA Decoded METAR 2020/04/04 04:15 UTC NOAA

Mosinee / Central Wisconsin, WI, United States (KCWA) 44-47N 089-40W
Apr 04, 2020 - 12:15 AM EDT / 2020.04.04 0415 UTC
Wind: from the NW (310 degrees) at 8 MPH (7 KT):0
Visibility: 7 mile(s):0
Sky conditions: overcast
Weather: light snow
Precipitation last hour: 0.01 inches
Temperature: 32 F (0 C)
Windchill: 24 F (-4 C):1
Dew Point: 32 F (0 C)
Relative Humidity: 100%
Pressure (altimeter): 30.06 in. Hg (1017 hPa)
ob: KCWA 040415Z AUTO 31007KT 7SM -SN BKN007 BKN043 OVC050 00/00 A3006 RMK AO2 P0001
cycle: 4

Station Type Date Time Source
KCWA TAF 2020/04/04 04:18 UTC NOAA

TAF
AMD KCWA 040416Z 0404/0424 32008KT 6SM -PLSN SCT007 OVC012
FM040800 32008KT P6SM BKN020
FM041000 32007KT P6SM SCT027
FM041200 32005KT P6SM SKC

Example: see airport list